Ookala, HI (96774)

11:11 AM HST on July 26, 2016 (GMT -1000)
Laupahoehoe | | Change Station

Elev 925 ft 19.98 °N, 155.24 °W | Updated 32 seconds ago

Scattered Clouds
Scattered Clouds
81.7 °F
Feels Like 88 °F
N
11.0
Wind Variable Wind from ENE
Gusts 16.0 mph

Today
High -- | Low -- °F
--% Chance of Precip.
Yesterday
High -- | Low -- °F
Precip. -- in
Pressure 30.03 in
Visibility 10.0 miles
Clouds Scattered Clouds 4600 ft
Heat Index 88 °F
Dew Point 74 °F
Humidity 78%
Rainfall 0.00 in
Snow Depth Not available.
5:54 AM 7:00 PM
Waning Gibbous, 51% visible
METAR PHTO 262053Z 09011KT 10SM SCT046 28/23 A3003 RMK AO2 SLP167 T02830228 50003
Pressure 30.03 in
Visibility 10.0 miles
Clouds Scattered Clouds 4600 ft
Heat Index 88 °F
Dew Point 74 °F
Humidity 78%
Rainfall 0.00 in
Snow Depth Not available.
5:54 AM 7:00 PM
Waning Gibbous, 51% visible
METAR PHTO 262053Z 09011KT 10SM SCT046 28/23 A3003 RMK AO2 SLP167 T02830228 50003

10-Day Weather Forecast

Almanac

Astronomy

Jul. 26, 2016 Rise Set
Actual Time
Civil Twilight
Nautical Twilight
Astronomical Twilight
Moon
Length of Visible Light
Length of Day
Tomorrow will be .
, % of the Moon is Illuminated

Today's Extremes

State Highs State Lows

Community

WunderPhotos

Upload Photos

1,927,688 photos uploaded!

WunderBlog® & News

Nearby

Air Quality

  Air Quality AQ Index Pollutant
Not available.

Snow Depth

Station Depth Elevation

Earthquake Activity

City Distance Mag. Time & Date
Minimum magnitude displayed is 2.5.

Coastal Water Temperatures

Place Temperature

Stations

Nearby Weather Stations

Station Location Temp. Windchill Dew Point Humidity Wind Precip. Elev Updated Type
                   

Watches & Warnings

There are currently no watches in effect.